Jean Anne — WDC3786 — position and weather

sailwx.info

Track history (hours):
 
Tides and Currents Weather Stations Pressure Air Temp Water Temp Dewpoint Dewpoint Depression Visibility Wind Speed Wind Dir Waves Ship Positions

Jean Anne

Owner: PASHA HAWAII TRANSPORT LINES LLC, National City, CA. More information available from US FCC via Universal Licensing System and Coast Guard Vessel Documentation Center.

Last reported at 2017-Oct-19 21:30 UTC. Time now 2017-Oct-20 16:07 UTC.
Position N 30°25' W 121°11'.

Type: Cargo ship. MMSI: 367003380.

Date/timePositionNaut miles runAvg speedWind from/ knotsBaromVisibWave heightAir tempDewpointWater temp
2017-Oct-19 21:30N 30°25' W 121°11'1018.4
2017-Oct-19 20:58N 30°28' W 121°00'1018.6
2017-Oct-19 20:27N 30°31' W 120°49'1218.5
2017-Oct-19 19:48N 30°34' W 120°36'5018.5
2017-Oct-19 17:05N 30°48' W 119°40'118.3
2017-Oct-19 17:00N 30°48' W 119°38'1318.8
2017-Oct-19 16:19N 30°51' W 119°24'718.8
2017-Oct-19 15:58N 30°53' W 119°16'919.2
2017-Oct-19 15:30N 30°55' W 119°06'918.9
2017-Oct-19 15:00N 30°58' W 118°56'1019.0
2017-Oct-19 14:30N 31°01' W 118°45'918.6
2017-Oct-19 14:01N 31°03' W 118°35'1019.0
2017-Oct-19 13:30N 31°11' W 118°28'1019.0
2017-Oct-19 13:00N 31°19' W 118°21'918.9
2017-Oct-19 12:31N 31°26' W 118°15'1019.1
2017-Oct-19 12:00N 31°34' W 118°08'1019.2
2017-Oct-19 11:30N 31°42' W 118°02'1018.2
2017-Oct-19 10:57N 31°50' W 117°55'818.7
2017-Oct-19 10:30N 31°57' W 117°49'918.5
2017-Oct-19 10:00N 32°05' W 117°43'918.7
2017-Oct-19 09:31N 32°12' W 117°36'917.8
2017-Oct-19 08:59N 32°20' W 117°30'2813.3
2017-Oct-19 06:52N 32°42' W 117°10'4 0.3
2017-Oct-18 17:53N 32°39' W 117°07'0 0.0
2017-Oct-18 14:50N 32°39' W 117°07'0 0.0
2017-Oct-18 13:59N 32°39' W 117°07'0 0.0
2017-Oct-18 13:23N 32°39' W 117°07'0 0.0
2017-Oct-18 11:47N 32°39' W 117°07'0 0.0
2017-Oct-18 07:52N 32°39' W 117°07'0 0.0
2017-Oct-18 06:37N 32°39' W 117°07'0 0.0
2017-Oct-18 06:25N 32°39' W 117°07'0 0.0
2017-Oct-18 04:10N 32°39' W 117°07'0 0.0
2017-Oct-18 03:55N 32°39' W 117°07'0 0.0
2017-Oct-17 22:02N 32°39' W 117°07'0 0.7
2017-Oct-17 21:58N 32°39' W 117°07'5 6.7
2017-Oct-17 21:14N 32°43' W 117°11'2 9.6
2017-Oct-17 21:00N 32°42' W 117°14'611.7
2017-Oct-17 20:30N 32°36' W 117°15'713.5
2017-Oct-17 20:00N 32°31' W 117°20'815.7
2017-Oct-17 19:31N 32°25' W 117°25'815.5
2017-Oct-17 19:00N 32°19' W 117°31'816.0
2017-Oct-17 18:30N 32°12' W 117°36'1019.8
2017-Oct-17 18:00N 32°04' W 117°43'1020.0
2017-Oct-17 17:30N 31°56' W 117°50'1020.0
2017-Oct-17 17:00N 31°48' W 117°57'1020.2
2017-Oct-17 16:30N 31°40' W 118°04'1020.2
2017-Oct-17 16:00N 31°31' W 118°11'1020.1
2017-Oct-17 15:31N 31°23' W 118°18'1020.1
2017-Oct-17 15:01N 31°15' W 118°25'1019.9
2017-Oct-17 14:29N 31°07' W 118°32'918.7
2017-Oct-17 14:01N 31°02' W 118°41'1019.7
2017-Oct-17 13:30N 30°60' W 118°52'4220.1
2017-Oct-17 11:24N 30°51' W 119°40'820.2
2017-Oct-17 11:00N 30°50' W 119°49'4420.4
2017-Oct-17 08:51N 30°40' W 120°39'4420.2
2017-Oct-17 06:39N 30°31' W 121°30'719.9
2017-Oct-17 06:18N 30°30' W 121°38'619.8
2017-Oct-17 06:00N 30°29' W 121°45'  
Track history (hours):
 
Tides and Currents Weather Stations Pressure Air Temp Water Temp Dewpoint Dewpoint Depression Visibility Wind Speed Wind Dir Waves Ship Positions

Jean Anne

Owner: PASHA HAWAII TRANSPORT LINES LLC, National City, CA. More information available from US FCC via Universal Licensing System and Coast Guard Vessel Documentation Center.

Last reported at 2017-Oct-19 21:30 UTC. Time now 2017-Oct-20 16:07 UTC.
Position N 30°25' W 121°11'.

Type: Cargo ship. MMSI: 367003380.

Date/timePositionNaut miles runAvg speedWind from/ knotsBaromVisibWave heightAir tempDewpointWater temp
2017-Oct-19 21:30N 30°25' W 121°11'1018.4
2017-Oct-19 20:58N 30°28' W 121°00'1018.6
2017-Oct-19 20:27N 30°31' W 120°49'1218.5
2017-Oct-19 19:48N 30°34' W 120°36'5018.5
2017-Oct-19 17:05N 30°48' W 119°40'118.3
2017-Oct-19 17:00N 30°48' W 119°38'1318.8
2017-Oct-19 16:19N 30°51' W 119°24'718.8
2017-Oct-19 15:58N 30°53' W 119°16'919.2
2017-Oct-19 15:30N 30°55' W 119°06'918.9
2017-Oct-19 15:00N 30°58' W 118°56'1019.0
2017-Oct-19 14:30N 31°01' W 118°45'918.6
2017-Oct-19 14:01N 31°03' W 118°35'1019.0
2017-Oct-19 13:30N 31°11' W 118°28'1019.0
2017-Oct-19 13:00N 31°19' W 118°21'918.9
2017-Oct-19 12:31N 31°26' W 118°15'1019.1
2017-Oct-19 12:00N 31°34' W 118°08'1019.2
2017-Oct-19 11:30N 31°42' W 118°02'1018.2
2017-Oct-19 10:57N 31°50' W 117°55'818.7
2017-Oct-19 10:30N 31°57' W 117°49'918.5
2017-Oct-19 10:00N 32°05' W 117°43'918.7
2017-Oct-19 09:31N 32°12' W 117°36'917.8
2017-Oct-19 08:59N 32°20' W 117°30'2813.3
2017-Oct-19 06:52N 32°42' W 117°10'4 0.3
2017-Oct-18 17:53N 32°39' W 117°07'0 0.0
2017-Oct-18 14:50N 32°39' W 117°07'0 0.0
2017-Oct-18 13:59N 32°39' W 117°07'0 0.0
2017-Oct-18 13:23N 32°39' W 117°07'0 0.0
2017-Oct-18 11:47N 32°39' W 117°07'0 0.0
2017-Oct-18 07:52N 32°39' W 117°07'0 0.0
2017-Oct-18 06:37N 32°39' W 117°07'0 0.0
2017-Oct-18 06:25N 32°39' W 117°07'0 0.0
2017-Oct-18 04:10N 32°39' W 117°07'0 0.0
2017-Oct-18 03:55N 32°39' W 117°07'0 0.0
2017-Oct-17 22:02N 32°39' W 117°07'0 0.7
2017-Oct-17 21:58N 32°39' W 117°07'5 6.7
2017-Oct-17 21:14N 32°43' W 117°11'2 9.6
2017-Oct-17 21:00N 32°42' W 117°14'611.7
2017-Oct-17 20:30N 32°36' W 117°15'713.5
2017-Oct-17 20:00N 32°31' W 117°20'815.7
2017-Oct-17 19:31N 32°25' W 117°25'815.5
2017-Oct-17 19:00N 32°19' W 117°31'816.0
2017-Oct-17 18:30N 32°12' W 117°36'1019.8
2017-Oct-17 18:00N 32°04' W 117°43'1020.0
2017-Oct-17 17:30N 31°56' W 117°50'1020.0
2017-Oct-17 17:00N 31°48' W 117°57'1020.2
2017-Oct-17 16:30N 31°40' W 118°04'1020.2
2017-Oct-17 16:00N 31°31' W 118°11'1020.1
2017-Oct-17 15:31N 31°23' W 118°18'1020.1
2017-Oct-17 15:01N 31°15' W 118°25'1019.9
2017-Oct-17 14:29N 31°07' W 118°32'918.7
2017-Oct-17 14:01N 31°02' W 118°41'1019.7
2017-Oct-17 13:30N 30°60' W 118°52'4220.1
2017-Oct-17 11:24N 30°51' W 119°40'820.2
2017-Oct-17 11:00N 30°50' W 119°49'4420.4
2017-Oct-17 08:51N 30°40' W 120°39'4420.2
2017-Oct-17 06:39N 30°31' W 121°30'719.9
2017-Oct-17 06:18N 30°30' W 121°38'619.8
2017-Oct-17 06:00N 30°29' W 121°45'  

Dump ship's entire track history